Alpine, AL (35014)

2:23 PM CDT on September 26, 2016 (GMT -0500)
Sycamore,Alabama | | Change Station

Elev 552 ft 33.26 °N, 86.21 °W | Updated 9 seconds ago

Clear
Clear
92.7 °F
Feels Like 93 °F
N
8.3
Wind Variable Wind from South
Gusts 9.8 mph

Today
High -- | Low -- °F
--% Chance of Precip.
Yesterday
High -- | Low -- °F
Precip. -- in
Pressure 29.96 in
Visibility 10.0 miles
Clouds Clear
Heat Index 93 °F
Dew Point 62 °F
Humidity 36%
Rainfall 0.00 in
Snow Depth Not available.
6:35 AM 6:35 PM
Waning Crescent, 17% visible
METAR KANB 261853Z AUTO 00000KT 10SM CLR 33/16 A2999 RMK AO2 SLP143 T03280161
Pressure 29.96 in
Visibility 10.0 miles
Clouds Clear
Heat Index 93 °F
Dew Point 62 °F
Humidity 36%
Rainfall 0.00 in
Snow Depth Not available.
6:35 AM 6:35 PM
Waning Crescent, 17% visible
METAR KANB 261853Z AUTO 00000KT 10SM CLR 33/16 A2999 RMK AO2 SLP143 T03280161

10-Day Weather Forecast

Almanac

Astronomy

Sep. 26, 2016 Rise Set
Actual Time
Civil Twilight
Nautical Twilight
Astronomical Twilight
Moon
Length of Visible Light
Length of Day
Tomorrow will be .
, % of the Moon is Illuminated

Today's Extremes

State Highs State Lows

Community

WunderPhotos

Upload Photos

1,941,954 photos uploaded!

WunderBlog® & News

Nearby

Air Quality

  Air Quality AQ Index Pollutant
Not available.

Snow Depth

Station Depth Elevation

Earthquake Activity

City Distance Mag. Time & Date
Minimum magnitude displayed is 2.5.

Coastal Water Temperatures

Place Temperature

Stations

Nearby Weather Stations

Station Location Temp. Windchill Dew Point Humidity Wind Precip. Elev Updated Type
                   

Watches & Warnings

There are currently no watches in effect.